createdAt,value
2022-08-14T00:02:04.515Z,8.82
2022-08-14T00:04:44.653Z,8.43
2022-08-14T00:07:15.345Z,8.18
2022-08-14T00:10:02.287Z,8.57
2022-08-14T00:12:39.389Z,8.18
2022-08-14T00:15:15.944Z,7.82
2022-08-14T00:17:48.214Z,7.82
2022-08-14T00:20:30.429Z,8.18
2022-08-14T00:23:12.383Z,8.57
2022-08-14T00:25:53.738Z,7.75
2022-08-14T00:28:35.885Z,8.20
2022-08-14T00:31:09.743Z,8.45
2022-08-14T00:33:51.838Z,7.88
2022-08-14T00:39:18.636Z,8.30
2022-08-14T00:41:49.288Z,8.23
2022-08-14T00:44:32.611Z,8.48
2022-08-14T00:47:10.661Z,7.32
2022-08-14T00:49:43.011Z,7.63
2022-08-14T00:52:17.871Z,7.20
2022-08-14T00:54:57.926Z,8.02
2022-08-14T00:57:32.594Z,6.82
2022-08-14T01:00:02.916Z,7.15
2022-08-14T01:02:32.427Z,7.80
2022-08-14T01:05:06.385Z,7.05
2022-08-14T01:07:38.848Z,6.50
2022-08-14T01:10:19.947Z,6.72
2022-08-14T01:12:51.185Z,6.93
2022-08-14T01:15:31.798Z,7.10
2022-08-14T01:18:34.155Z,6.63
2022-08-14T01:21:05.374Z,7.20
2022-08-14T01:23:46.419Z,6.43
2022-08-14T01:26:34.381Z,6.60
2022-08-14T01:29:07.384Z,6.70
2022-08-14T01:31:50.332Z,6.53
2022-08-14T01:35:21.297Z,6.57
2022-08-14T01:37:16.496Z,6.38
2022-08-14T01:39:48.150Z,7.18
2022-08-14T01:42:32.102Z,6.25
2022-08-14T01:45:17.983Z,6.25
2022-08-14T01:48:03.472Z,6.05
2022-08-14T01:50:33.891Z,5.93
2022-08-14T01:53:03.367Z,5.30
2022-08-14T01:55:33.147Z,6.07
2022-08-14T01:58:19.628Z,5.38
2022-08-14T02:00:55.925Z,6.07
2022-08-14T02:03:30.737Z,5.55
2022-08-14T02:06:03.911Z,5.72
2022-08-14T02:08:52.490Z,5.43
2022-08-14T02:11:24.099Z,5.70
2022-08-14T02:13:57.928Z,6.60
2022-08-14T02:16:31.161Z,6.28
2022-08-14T02:19:03.232Z,6.50
2022-08-14T02:21:43.165Z,6.00
2022-08-14T02:24:40.303Z,5.53
2022-08-14T02:28:23.515Z,6.10
2022-08-14T02:30:01.006Z,6.43
2022-08-14T02:32:46.398Z,6.30
2022-08-14T02:35:22.040Z,5.82
2022-08-14T02:37:55.608Z,5.85
2022-08-14T02:40:32.169Z,5.88
2022-08-14T02:43:07.592Z,5.85
2022-08-14T02:45:38.542Z,5.95
2022-08-14T02:49:03.452Z,5.32
2022-08-14T02:51:09.291Z,5.05
2022-08-14T02:53:42.477Z,5.28
2022-08-14T02:57:13.643Z,5.30
2022-08-14T02:59:05.697Z,5.90
2022-08-14T03:01:43.876Z,5.35
2022-08-14T03:04:20.834Z,5.47
2022-08-14T03:06:57.756Z,5.32
2022-08-14T03:10:24.294Z,5.05
2022-08-14T03:12:30.823Z,4.65
2022-08-14T03:15:14.119Z,5.03
2022-08-14T03:17:56.614Z,5.50
2022-08-14T03:20:30.095Z,5.25
2022-08-14T03:23:03.137Z,5.20
2022-08-14T03:25:37.813Z,5.47
2022-08-14T03:28:14.421Z,4.78
2022-08-14T03:31:00.253Z,5.13
2022-08-14T03:33:37.481Z,4.88
2022-08-14T03:39:11.680Z,4.97
2022-08-14T03:41:45.755Z,5.50
2022-08-14T03:45:27.375Z,5.00
2022-08-14T03:47:04.880Z,6.05
2022-08-14T03:49:34.774Z,5.50
2022-08-14T03:52:18.194Z,5.97
2022-08-14T03:54:56.428Z,5.70
2022-08-14T03:57:25.859Z,5.35
2022-08-14T03:59:55.132Z,5.50
2022-08-14T04:02:32.516Z,5.40
2022-08-14T04:05:11.624Z,5.38
2022-08-14T04:07:49.769Z,5.45
2022-08-14T04:10:32.960Z,5.10
2022-08-14T04:13:04.362Z,4.82
2022-08-14T04:15:40.955Z,5.15
2022-08-14T04:18:24.962Z,5.43
2022-08-14T04:20:55.949Z,5.15
2022-08-14T04:23:29.883Z,5.55
2022-08-14T04:26:08.193Z,5.32
2022-08-14T04:29:08.975Z,5.38
2022-08-14T04:33:02.347Z,4.97
2022-08-14T04:34:24.012Z,5.35
2022-08-14T04:37:22.401Z,5.15
2022-08-14T04:40:16.209Z,5.15
2022-08-14T04:43:05.277Z,5.15
2022-08-14T04:45:42.076Z,4.78
2022-08-14T04:48:39.769Z,5.72
2022-08-14T04:51:08.593Z,5.30
2022-08-14T04:53:42.760Z,5.45
2022-08-14T04:56:33.816Z,5.35
2022-08-14T04:59:10.543Z,5.10
2022-08-14T05:01:47.783Z,5.15
2022-08-14T05:04:20.984Z,5.55
2022-08-14T05:06:54.391Z,5.78
2022-08-14T05:09:29.121Z,5.10
2022-08-14T05:13:11.148Z,5.50
2022-08-14T05:14:53.588Z,5.57
2022-08-14T05:17:34.753Z,5.45
2022-08-14T05:21:54.200Z,5.47
2022-08-14T05:23:05.146Z,5.85
2022-08-14T05:25:34.976Z,5.82
2022-08-14T05:28:16.245Z,5.57
2022-08-14T05:30:47.837Z,5.97
2022-08-14T05:33:20.019Z,5.15
2022-08-14T05:35:50.838Z,4.97
2022-08-14T05:38:31.879Z,5.47
2022-08-14T05:41:08.860Z,5.53
2022-08-14T05:43:41.542Z,5.03
2022-08-14T05:46:15.409Z,4.68
2022-08-14T05:48:49.758Z,5.45
2022-08-14T05:51:19.511Z,6.47
2022-08-14T05:54:00.009Z,6.22
2022-08-14T05:56:29.971Z,6.18
2022-08-14T05:59:00.768Z,6.30
2022-08-14T06:01:31.424Z,5.68
2022-08-14T06:04:01.404Z,6.30
2022-08-14T06:06:38.406Z,5.22
2022-08-14T06:09:10.589Z,5.50
2022-08-14T06:11:40.171Z,5.67
2022-08-14T06:14:12.619Z,5.80
2022-08-14T06:16:52.940Z,6.30
2022-08-14T06:19:23.544Z,6.00
2022-08-14T06:21:58.316Z,5.88
2022-08-14T06:24:30.482Z,7.10
2022-08-14T06:27:09.808Z,6.65
2022-08-14T06:29:40.421Z,7.22
2022-08-14T06:32:37.671Z,6.85
2022-08-14T06:35:04.399Z,6.55
2022-08-14T06:37:47.684Z,5.82
2022-08-14T06:40:27.941Z,5.80
2022-08-14T06:43:03.741Z,6.82
2022-08-14T06:45:36.162Z,5.88
2022-08-14T06:48:12.771Z,5.30
2022-08-14T06:50:42.633Z,5.57
2022-08-14T06:53:16.182Z,5.80
2022-08-14T06:55:53.288Z,5.82
2022-08-14T06:58:30.867Z,6.43
2022-08-14T07:01:27.611Z,7.40
2022-08-14T07:04:22.845Z,6.68
2022-08-14T07:06:54.923Z,6.15
2022-08-14T07:09:43.585Z,6.03
2022-08-14T07:12:54.437Z,4.72
2022-08-14T07:15:09.049Z,4.82
2022-08-14T07:17:47.153Z,4.55
2022-08-14T07:20:30.530Z,5.28
2022-08-14T07:23:08.422Z,4.75
2022-08-14T07:25:43.721Z,5.35
2022-08-14T07:28:20.585Z,5.13
2022-08-14T07:30:52.235Z,6.93
2022-08-14T07:33:29.066Z,5.57
2022-08-14T07:36:03.262Z,5.30
2022-08-14T07:38:53.136Z,5.68
2022-08-14T07:41:22.487Z,5.80
2022-08-14T07:43:55.358Z,5.70
2022-08-14T07:46:28.234Z,5.25
2022-08-14T07:49:00.021Z,5.15
2022-08-14T07:51:34.195Z,6.15
2022-08-14T07:54:09.854Z,5.35
2022-08-14T07:56:44.250Z,5.55
2022-08-14T07:59:41.012Z,6.00
2022-08-14T08:02:18.741Z,5.88
2022-08-14T08:04:54.879Z,5.70
2022-08-14T08:07:30.061Z,6.25
2022-08-14T08:10:02.493Z,6.07
2022-08-14T08:12:32.996Z,6.63
2022-08-14T08:15:05.769Z,5.80
2022-08-14T08:17:53.233Z,6.30
2022-08-14T08:20:27.798Z,5.72
2022-08-14T08:23:06.366Z,5.72
2022-08-14T08:25:40.138Z,5.68
2022-08-14T08:28:21.777Z,6.47
2022-08-14T08:30:54.103Z,6.15
2022-08-14T08:33:31.813Z,6.40
2022-08-14T08:36:07.931Z,7.05
2022-08-14T08:39:17.001Z,6.53
2022-08-14T08:41:28.025Z,6.53
2022-08-14T08:44:30.071Z,6.50
2022-08-14T08:47:01.426Z,5.68
2022-08-14T08:49:52.767Z,6.95
2022-08-14T08:52:32.121Z,6.53
2022-08-14T08:55:04.833Z,6.72
2022-08-14T08:57:39.088Z,6.75
2022-08-14T09:00:24.992Z,7.00
2022-08-14T09:02:59.105Z,6.70
2022-08-14T09:05:30.239Z,6.45
2022-08-14T09:08:30.834Z,6.35
2022-08-14T09:11:20.900Z,6.85
2022-08-14T09:13:54.637Z,5.93
2022-08-14T09:16:26.705Z,6.22
2022-08-14T09:18:57.441Z,5.85
2022-08-14T09:21:31.405Z,6.85
2022-08-14T09:24:29.260Z,6.22
2022-08-14T09:26:52.198Z,6.30
2022-08-14T09:29:23.053Z,6.22
2022-08-14T09:31:57.879Z,6.75
2022-08-14T09:35:02.863Z,7.43
2022-08-14T09:37:59.316Z,6.47
2022-08-14T09:40:38.785Z,7.35
2022-08-14T09:43:14.565Z,7.18
2022-08-14T09:45:53.158Z,6.68
2022-08-14T09:48:30.226Z,13.55
2022-08-14T09:54:18.532Z,12.27
2022-08-14T09:59:33.730Z,17.05
2022-08-14T10:02:08.578Z,11.90
2022-08-14T10:04:46.024Z,8.35
2022-08-14T10:07:19.318Z,6.10
2022-08-14T10:09:59.827Z,6.57
2022-08-14T10:12:44.941Z,6.82
2022-08-14T10:15:21.282Z,6.40
2022-08-14T10:17:53.295Z,6.03
2022-08-14T10:20:40.827Z,6.93
2022-08-14T10:23:16.437Z,6.95
2022-08-14T10:25:55.173Z,8.40
2022-08-14T10:28:39.296Z,8.65
2022-08-14T10:31:26.788Z,9.73
2022-08-14T10:34:14.462Z,14.07
2022-08-14T10:36:48.118Z,13.90
2022-08-14T10:39:27.363Z,11.48
2022-08-14T10:42:18.092Z,10.63
2022-08-14T10:44:52.593Z,10.40
2022-08-14T10:47:40.162Z,10.48
2022-08-14T10:50:12.106Z,11.18
2022-08-14T10:52:46.245Z,9.52
2022-08-14T10:55:20.941Z,9.40
2022-08-14T10:57:52.583Z,8.93
2022-08-14T11:00:29.505Z,10.00
2022-08-14T11:03:11.273Z,10.38
2022-08-14T11:05:43.829Z,9.30
2022-08-14T11:08:16.896Z,8.75
2022-08-14T11:10:58.583Z,9.70
2022-08-14T11:13:30.766Z,9.07
2022-08-14T11:16:02.605Z,9.30
2022-08-14T11:18:40.181Z,9.47
2022-08-14T11:21:10.802Z,10.20
2022-08-14T11:23:43.872Z,10.18
2022-08-14T11:26:16.580Z,10.02
2022-08-14T11:28:49.895Z,9.80
2022-08-14T11:31:23.139Z,10.50
2022-08-14T11:33:59.545Z,9.93
2022-08-14T11:36:57.264Z,11.48
2022-08-14T11:39:34.495Z,10.07
2022-08-14T11:42:56.510Z,11.85
2022-08-14T11:45:02.034Z,10.90
2022-08-14T11:48:10.621Z,10.68
2022-08-14T11:50:37.408Z,11.38
2022-08-14T11:53:09.503Z,15.73
2022-08-14T11:55:42.797Z,15.93
2022-08-14T11:58:23.631Z,16.70
2022-08-14T12:01:01.412Z,20.27
2022-08-14T12:03:57.184Z,27.08
2022-08-14T12:06:35.916Z,25.80
2022-08-14T12:09:14.878Z,25.60
2022-08-14T12:11:47.626Z,27.55
2022-08-14T12:14:30.142Z,27.38
2022-08-14T12:17:11.700Z,28.35
2022-08-14T12:19:51.518Z,28.95
2022-08-14T12:22:45.168Z,27.95
2022-08-14T12:25:25.311Z,26.65
2022-08-14T12:27:58.870Z,26.95
2022-08-14T12:30:40.084Z,25.02
2022-08-14T12:33:34.206Z,25.63
2022-08-14T12:36:14.117Z,25.65
2022-08-14T12:38:54.339Z,25.38
2022-08-14T12:41:34.296Z,24.63
2022-08-14T12:46:43.453Z,22.65
2022-08-14T12:49:16.117Z,22.40
2022-08-14T12:51:57.805Z,21.73
2022-08-14T12:54:31.953Z,22.40
2022-08-14T12:57:07.169Z,21.25
2022-08-14T12:59:42.589Z,21.15
2022-08-14T13:02:25.317Z,22.13
2022-08-14T13:04:58.292Z,23.42
2022-08-14T13:07:32.080Z,30.33
2022-08-14T13:10:12.830Z,29.73
2022-08-14T13:13:12.939Z,30.38
2022-08-14T13:15:45.695Z,30.25
2022-08-14T13:18:16.981Z,23.73
2022-08-14T13:20:55.420Z,26.27
2022-08-14T13:23:32.092Z,21.70
2022-08-14T13:28:34.560Z,20.75
2022-08-14T13:31:12.217Z,21.15
2022-08-14T13:33:42.428Z,20.38
2022-08-14T13:36:24.267Z,19.35
2022-08-14T13:39:02.447Z,19.50
2022-08-14T13:41:36.459Z,19.77
2022-08-14T13:44:07.880Z,20.42
2022-08-14T13:46:45.916Z,21.67
2022-08-14T13:49:17.105Z,20.02
2022-08-14T13:51:53.985Z,21.58
2022-08-14T13:54:24.585Z,20.92
2022-08-14T13:56:56.269Z,20.93
2022-08-14T13:59:38.275Z,21.08
2022-08-14T14:02:09.588Z,22.63
2022-08-14T14:04:43.155Z,21.58
2022-08-14T14:07:23.439Z,21.20
2022-08-14T14:09:57.796Z,20.95
2022-08-14T14:12:36.718Z,21.55
2022-08-14T14:15:13.991Z,18.67
2022-08-14T14:17:48.825Z,18.15
2022-08-14T14:20:35.772Z,18.35
2022-08-14T14:23:12.314Z,17.27
2022-08-14T14:25:57.099Z,17.02
2022-08-14T14:28:33.334Z,16.80
2022-08-14T14:31:06.966Z,18.67
2022-08-14T14:33:47.019Z,15.70
2022-08-14T14:36:21.782Z,15.57
2022-08-14T14:38:55.567Z,16.30
2022-08-14T14:41:37.961Z,15.88
2022-08-14T14:44:10.169Z,16.15
2022-08-14T14:46:45.284Z,15.85
2022-08-14T14:49:15.902Z,15.82
2022-08-14T14:51:51.643Z,15.85
2022-08-14T14:54:31.845Z,15.05
2022-08-14T14:57:09.340Z,15.93
2022-08-14T14:59:39.785Z,15.35
2022-08-14T15:02:10.330Z,15.65
2022-08-14T15:04:43.805Z,16.00
2022-08-14T15:07:16.328Z,15.35
2022-08-14T15:09:45.870Z,16.17
2022-08-14T15:12:34.391Z,16.13
2022-08-14T15:15:08.550Z,15.60
2022-08-14T15:17:41.781Z,15.55
2022-08-14T15:22:51.375Z,15.68
2022-08-14T15:25:21.084Z,16.15
2022-08-14T15:27:54.551Z,17.15
2022-08-14T15:30:32.282Z,16.88
2022-08-14T15:33:02.180Z,16.58
2022-08-14T15:35:35.076Z,17.85
2022-08-14T15:38:11.018Z,16.35
2022-08-14T15:40:43.833Z,16.95
2022-08-14T15:43:20.554Z,17.25
2022-08-14T15:45:52.897Z,16.83
2022-08-14T15:48:23.775Z,16.52
2022-08-14T15:50:52.998Z,16.98
2022-08-14T15:53:24.120Z,16.20
2022-08-14T15:55:55.936Z,16.58
2022-08-14T15:58:27.360Z,15.85
2022-08-14T16:01:31.230Z,15.73
2022-08-14T16:04:07.273Z,17.20
2022-08-14T16:06:36.614Z,16.83
2022-08-14T16:09:11.072Z,17.75
2022-08-14T16:11:47.409Z,17.38
2022-08-14T16:14:20.432Z,16.25
2022-08-14T16:17:00.025Z,17.25
2022-08-14T16:19:44.324Z,19.38
2022-08-14T16:22:58.639Z,18.70
2022-08-14T16:25:06.692Z,19.48
2022-08-14T16:27:40.814Z,20.70
2022-08-14T16:30:20.872Z,21.70
2022-08-14T16:32:56.576Z,21.70
2022-08-14T16:35:43.119Z,21.15
2022-08-14T16:38:46.123Z,21.10
2022-08-14T16:41:29.442Z,21.65
2022-08-14T16:44:04.670Z,21.92
2022-08-14T16:46:43.537Z,22.58
2022-08-14T16:49:16.031Z,23.83
2022-08-14T16:51:51.370Z,24.17
2022-08-14T16:54:35.112Z,24.63
2022-08-14T16:57:23.985Z,25.17
2022-08-14T17:03:57.929Z,23.27
2022-08-14T17:06:55.467Z,22.27
2022-08-14T17:09:49.942Z,22.92
2022-08-14T17:12:33.596Z,22.10
2022-08-14T17:15:10.669Z,20.90
2022-08-14T17:17:42.180Z,19.65
2022-08-14T17:20:39.677Z,21.88
2022-08-14T17:23:10.808Z,18.80
2022-08-14T17:25:40.579Z,17.88
2022-08-14T17:28:39.107Z,18.38
2022-08-14T17:31:12.391Z,16.92
2022-08-14T17:33:44.537Z,16.58
2022-08-14T17:36:24.857Z,15.60
2022-08-14T17:39:09.039Z,17.25
2022-08-14T17:42:01.905Z,18.17
2022-08-14T17:44:45.431Z,17.15
2022-08-14T17:47:18.566Z,16.90
2022-08-14T17:49:52.866Z,17.33
2022-08-14T17:52:36.922Z,16.75
2022-08-14T17:56:02.454Z,18.10
2022-08-14T17:58:20.578Z,20.50
2022-08-14T18:01:04.501Z,20.13
2022-08-14T18:03:44.965Z,19.80
2022-08-14T18:06:40.199Z,20.10
2022-08-14T18:09:25.069Z,19.58
2022-08-14T18:11:58.616Z,18.35
2022-08-14T18:14:33.114Z,18.20
2022-08-14T18:17:19.476Z,18.40
2022-08-14T18:19:53.160Z,17.85
2022-08-14T18:22:36.325Z,16.77
2022-08-14T18:25:18.497Z,16.88
2022-08-14T18:27:52.174Z,17.75
2022-08-14T18:30:33.190Z,16.02
2022-08-14T18:35:58.589Z,14.98
2022-08-14T18:38:46.472Z,15.50
2022-08-14T18:41:38.070Z,14.98
2022-08-14T18:44:10.320Z,14.38
2022-08-14T18:47:16.157Z,14.52
2022-08-14T18:50:27.025Z,15.05
2022-08-14T18:53:08.999Z,14.77
2022-08-14T18:58:58.555Z,14.30
2022-08-14T19:01:31.359Z,13.50
2022-08-14T19:04:04.056Z,13.40
2022-08-14T19:06:41.540Z,14.18
2022-08-14T19:09:51.272Z,14.68
2022-08-14T19:12:58.052Z,13.63
2022-08-14T19:15:36.077Z,14.75
2022-08-14T19:18:38.137Z,15.85
2022-08-14T19:21:24.069Z,13.93
2022-08-14T19:24:27.666Z,14.27
2022-08-14T19:27:24.259Z,12.45
2022-08-14T19:30:21.578Z,14.18
2022-08-14T19:32:56.077Z,15.57
2022-08-14T19:35:49.422Z,15.65
2022-08-14T19:38:49.031Z,16.55
2022-08-14T19:41:29.694Z,14.75
2022-08-14T19:44:16.678Z,15.10
2022-08-14T19:47:00.548Z,16.13
2022-08-14T19:50:24.429Z,14.45
2022-08-14T19:52:35.352Z,15.35
2022-08-14T19:55:34.115Z,14.50
2022-08-14T19:58:05.439Z,14.23
2022-08-14T20:00:35.588Z,14.25
2022-08-14T20:03:23.365Z,13.13
2022-08-14T20:06:05.576Z,13.30
2022-08-14T20:11:00.285Z,12.82
2022-08-14T20:12:00.747Z,12.98
2022-08-14T20:14:29.703Z,12.23
2022-08-14T20:17:06.340Z,12.95
2022-08-14T20:19:41.536Z,12.25
2022-08-14T20:22:36.513Z,12.05
2022-08-14T20:25:20.893Z,11.93
2022-08-14T20:27:58.563Z,11.85
2022-08-14T20:30:34.634Z,11.40
2022-08-14T20:33:10.982Z,11.45
2022-08-14T20:35:43.798Z,11.60
2022-08-14T20:38:29.847Z,12.13
2022-08-14T20:41:07.602Z,13.35
2022-08-14T20:44:06.325Z,13.15
2022-08-14T20:46:42.193Z,12.68
2022-08-14T20:49:20.448Z,11.55
2022-08-14T20:51:59.609Z,12.00
2022-08-14T20:54:34.234Z,11.77
2022-08-14T20:57:14.446Z,11.63
2022-08-14T20:59:46.961Z,12.40
2022-08-14T21:02:34.764Z,12.50
2022-08-14T21:05:16.801Z,13.15
2022-08-14T21:07:50.393Z,14.80
2022-08-14T21:10:34.198Z,13.48
2022-08-14T21:13:25.539Z,12.60
2022-08-14T21:15:58.706Z,13.02
2022-08-14T21:18:33.998Z,12.43
2022-08-14T21:21:08.926Z,11.93
2022-08-14T21:23:54.175Z,12.30
2022-08-14T21:26:51.507Z,12.32
2022-08-14T21:29:15.802Z,12.60
2022-08-14T21:31:55.512Z,13.05
2022-08-14T21:34:32.464Z,12.95
2022-08-14T21:37:08.886Z,11.75
2022-08-14T21:39:39.601Z,12.68
2022-08-14T21:42:11.072Z,12.63
2022-08-14T21:44:43.525Z,13.43
2022-08-14T21:47:15.961Z,15.02
2022-08-14T21:49:47.779Z,14.45
2022-08-14T21:52:51.180Z,15.07
2022-08-14T21:55:12.397Z,14.32
2022-08-14T21:58:51.180Z,15.10
2022-08-14T22:00:42.743Z,15.23
2022-08-14T22:03:18.456Z,15.02
2022-08-14T22:05:52.477Z,16.55
2022-08-14T22:08:26.558Z,21.42
2022-08-14T22:10:57.769Z,26.67
2022-08-14T22:13:32.514Z,27.58
2022-08-14T22:16:03.360Z,20.88
2022-08-14T22:18:33.564Z,19.27
2022-08-14T22:21:05.745Z,17.70
2022-08-14T22:23:37.306Z,17.98
2022-08-14T22:26:08.044Z,18.05
2022-08-14T22:28:38.466Z,17.80
2022-08-14T22:31:22.162Z,20.38
2022-08-14T22:33:57.808Z,20.70
2022-08-14T22:36:47.032Z,26.95
2022-08-14T22:40:17.379Z,26.52
2022-08-14T22:42:21.473Z,24.70
2022-08-14T22:44:56.796Z,23.17
2022-08-14T22:47:40.380Z,22.25
2022-08-14T22:50:30.328Z,21.63
2022-08-14T22:53:00.706Z,21.73
2022-08-14T22:55:30.123Z,23.77
2022-08-14T22:58:06.381Z,24.00
2022-08-14T23:00:36.498Z,20.00
2022-08-14T23:03:17.417Z,21.63
2022-08-14T23:05:52.727Z,19.65
2022-08-14T23:08:56.748Z,18.30
2022-08-14T23:11:13.634Z,18.52
2022-08-14T23:13:46.173Z,18.63
2022-08-14T23:16:20.566Z,17.52
2022-08-14T23:18:53.563Z,17.67
2022-08-14T23:21:25.200Z,17.92
2022-08-14T23:23:59.831Z,16.85
2022-08-14T23:26:49.504Z,17.17
2022-08-14T23:29:21.778Z,17.25
2022-08-14T23:31:51.367Z,24.23
2022-08-14T23:34:23.033Z,29.10
2022-08-14T23:36:56.790Z,20.10
2022-08-14T23:39:32.925Z,19.27
2022-08-14T23:42:08.475Z,19.30
2022-08-14T23:44:39.355Z,20.40
2022-08-14T23:47:26.043Z,20.42
2022-08-14T23:50:04.074Z,23.02
2022-08-14T23:52:50.578Z,21.27
2022-08-14T23:55:33.394Z,19.70
